Shanks, WV

2:36 PM EST on January 26, 2015 (GMT -0500)
Eastern W Va Regional-Shepherd | Change Station
CLOSE
Current Station
Airport
Location: Martinsburg,
Elevation: 531 ft
Nearby Weather Stations
Active Advisory: Winter Weather Advisory Active Notice: Public Information Statement

Elev 531 ft 39.40 °N, 77.98 °W | Updated 26 minutes ago

Overcast
Overcast
28 °F
Feels Like 19 °F
N
9
Wind Variable Wind from NNE

Today
High -- | Low -- °F
--% Chance of Precip.
Yesterday
High -- | Low -- °F
Precip. -- in
7:26 AM 5:28 PM
Waxing Crescent, 46% visible
Pressure 29.74 in
Visibility 2.5 miles
Clouds Overcast 1600 ft
Windchill 19 °F
Dew Point 23 °F
Humidity 81%
Rainfall 0.02 in
Snow Depth Not available.
UV 1 out of 12
Pollen .10 out of 12
Air Quality Not available.
Flu Activity Not available.
SPECI KMRB 261910Z 03008KT 2 1/2SM HZ OVC016 M02/M05 A2974 RMK AO2 T10221050

More Conditions Fewer Conditions

Pressure 29.74 in
Visibility 2.5 miles
Clouds Overcast 1600 ft
Windchill 19 °F
Dew Point 23 °F
Humidity 81%
Rainfall 0.02 in
Snow Depth Not available.
UV 1 out of 12
Pollen .10 out of 12
Air Quality Not available.
Flu Activity Not available.
SPECI KMRB 261910Z 03008KT 2 1/2SM HZ OVC016 M02/M05 A2974 RMK AO2 T10221050

More Conditions Fewer Conditions

10-Day Weather Forecast

Almanac

Astronomy

Jan. 26, 2015 Rise Set
Actual Time
Civil Twilight
Nautical Twilight
Astronomical Twilight
Moon
Length of Visible Light
Length of Day
Tomorrow will be .
, % of the Moon is Illuminated

Today's Extremes

State Highs State Lows

Community

WunderPhotos

Upload Photos

1,790,338 photos uploaded!

WunderBlogs® & News

Nearby

Air Quality

  Air Quality AQ Index Pollutant
Not available.

Snow Depth

Station Depth Elevation

Earthquake Activity

City Distance Mag. Time & Date
Minimum magnitude displayed is 2.5.

Coastal Water Temperatures

Place Temperature

Nearby Weather Stations